Time;durP1;ratioP1;P1;durP2;ratioP2;P2;SDS_P1;SDS_P2;PMS_P1;PMS_P2;Temp;Humidity;BMP_temperature;BMP_pressure;BME280_temperature;BME280_humidity;BME280_pressure;Samples;Min_cycle;Max_cycle;Signal;HPM_P1;HPM_P2
2023/09/05 00:00:04;;;;;;;86.20;83.10;;;;;;;;;;5070092;28;20470;-41
2023/09/05 00:02:31;;;;;;;87.27;83.80;;;;;;;;;;5070573;28;20953;-42
2023/09/05 00:04:59;;;;;;;87.50;84.10;;;;;;;;;;5060620;28;20463;-45
2023/09/05 00:07:27;;;;;;;93.57;89.87;;;;;;;;;;5066851;28;20861;-42
2023/09/05 00:09:57;;;;;;;93.63;90.13;;;;;;;;;;5064762;28;20427;-41
2023/09/05 00:12:27;;;;;;;97.60;93.63;;;;;;;;;;5062498;28;20485;-43
2023/09/05 00:14:55;;;;;;;99.70;95.90;;;;;;;;;;5066852;28;20490;-42
2023/09/05 00:17:24;;;;;;;99.07;95.07;;;;;;;;;;5054524;28;20946;-44
2023/09/05 00:19:52;;;;;;;98.90;95.27;;;;;;;;;;5053532;28;20440;-41
2023/09/05 00:22:20;;;;;;;91.47;87.97;;;;;;;;;;5041684;28;20470;-44
2023/09/05 00:24:48;;;;;;;89.10;85.80;;;;;;;;;;5038648;28;20938;-40
2023/09/05 00:27:16;;;;;;;94.90;91.40;;;;;;;;;;5070068;28;20469;-43
2023/09/05 00:29:43;;;;;;;93.20;89.70;;;;;;;;;;5069792;28;20507;-40
2023/09/05 00:32:11;;;;;;;95.03;91.53;;;;;;;;;;5069366;28;20434;-44
2023/09/05 00:34:40;;;;;;;92.97;89.27;;;;;;;;;;5069200;28;20494;-47
2023/09/05 00:37:08;;;;;;;93.30;89.70;;;;;;;;;;5070108;28;20501;-42
2023/09/05 00:39:40;;;;;;;93.17;89.73;;;;;;;;;;5069606;28;20471;-46
2023/09/05 00:42:10;;;;;;;92.63;89.07;;;;;;;;;;5069231;28;20471;-40
2023/09/05 00:44:38;;;;;;;92.83;89.43;;;;;;;;;;5066379;28;21059;-42
2023/09/05 00:47:06;;;;;;;95.87;91.97;;;;;;;;;;5050959;28;20460;-41
2023/09/05 00:49:38;;;;;;;96.20;92.57;;;;;;;;;;5046835;28;20428;-41
2023/09/05 00:52:08;;;;;;;92.60;88.93;;;;;;;;;;5042863;28;20471;-42
2023/09/05 00:54:36;;;;;;;95.47;91.77;;;;;;;;;;5041099;28;20456;-46
2023/09/05 00:57:04;;;;;;;93.43;89.80;;;;;;;;;;5070887;28;20974;-45
2023/09/05 00:59:32;;;;;;;91.17;87.73;;;;;;;;;;5075196;28;20431;-44
2023/09/05 01:01:59;;;;;;;97.27;93.77;;;;;;;;;;5077533;28;20513;-41
2023/09/05 01:04:27;;;;;;;97.43;93.63;;;;;;;;;;5065188;28;20496;-40
2023/09/05 01:06:57;;;;;;;88.77;85.17;;;;;;;;;;5045150;28;20465;-44
2023/09/05 01:09:30;;;;;;;93.30;89.60;;;;;;;;;;5049630;28;20498;-43
2023/09/05 01:11:59;;;;;;;90.17;86.77;;;;;;;;;;5041835;28;20472;-42
2023/09/05 01:14:26;;;;;;;88.97;85.77;;;;;;;;;;5048087;28;20448;-42
2023/09/05 01:17:00;;;;;;;88.07;84.80;;;;;;;;;;5057377;28;20463;-41
2023/09/05 01:19:29;;;;;;;100.10;96.40;;;;;;;;;;5042538;28;20431;-41
2023/09/05 01:22:02;;;;;;;104.87;101.07;;;;;;;;;;5048249;28;20475;-41
2023/09/05 01:24:35;;;;;;;101.00;97.23;;;;;;;;;;5040598;28;20987;-45
2023/09/05 01:27:04;;;;;;;100.50;96.90;;;;;;;;;;5039948;28;20539;-44
2023/09/05 01:29:35;;;;;;;101.33;97.73;;;;;;;;;;5041172;28;20432;-45
2023/09/05 01:32:02;;;;;;;106.93;102.73;;;;;;;;;;5040341;28;20436;-40
2023/09/05 01:34:30;;;;;;;105.20;101.30;;;;;;;;;;5040176;28;20451;-39
2023/09/05 01:36:58;;;;;;;111.17;107.07;;;;;;;;;;5040647;28;20579;-41
2023/09/05 01:39:25;;;;;;;108.03;103.87;;;;;;;;;;5040441;28;20447;-40
2023/09/05 01:41:54;;;;;;;106.80;102.70;;;;;;;;;;5040815;28;20889;-46
2023/09/05 01:44:22;;;;;;;103.03;99.23;;;;;;;;;;5031649;28;20459;-41
2023/09/05 01:46:49;;;;;;;102.67;98.77;;;;;;;;;;5040344;28;20468;-40
2023/09/05 01:49:17;;;;;;;100.43;96.83;;;;;;;;;;5040614;28;20436;-42
2023/09/05 01:51:44;;;;;;;100.80;96.90;;;;;;;;;;5040412;28;20875;-40
2023/09/05 01:54:12;;;;;;;99.73;95.93;;;;;;;;;;5040205;28;20459;-45
2023/09/05 01:56:39;;;;;;;103.30;99.10;;;;;;;;;;5056579;28;20493;-45
2023/09/05 01:59:08;;;;;;;111.63;107.60;;;;;;;;;;5060630;28;20442;-40
2023/09/05 02:01:35;;;;;;;125.13;120.50;;;;;;;;;;5060296;28;20467;-42
2023/09/05 02:04:03;;;;;;;127.20;122.40;;;;;;;;;;5060109;28;20462;-40
2023/09/05 02:06:30;;;;;;;127.87;122.70;;;;;;;;;;5059837;28;20541;-42
2023/09/05 02:08:58;;;;;;;132.63;127.30;;;;;;;;;;5060765;28;20495;-42
2023/09/05 02:11:25;;;;;;;128.60;123.30;;;;;;;;;;5059659;28;20446;-42
2023/09/05 02:13:53;;;;;;;130.03;124.80;;;;;;;;;;5059567;28;20466;-41
2023/09/05 02:16:24;;;;;;;134.13;128.77;;;;;;;;;;5059794;28;20542;-42
2023/09/05 02:18:52;;;;;;;124.63;119.93;;;;;;;;;;5059680;28;20911;-41
2023/09/05 02:21:20;;;;;;;124.63;120.10;;;;;;;;;;5059877;28;20503;-42
2023/09/05 02:23:47;;;;;;;122.07;116.97;;;;;;;;;;5060156;28;20891;-42
2023/09/05 02:26:15;;;;;;;125.37;120.73;;;;;;;;;;5058910;28;20554;-41
2023/09/05 02:28:44;;;;;;;131.87;126.70;;;;;;;;;;5059856;28;20863;-39
2023/09/05 02:31:12;;;;;;;140.60;135.17;;;;;;;;;;5060364;28;20462;-45
2023/09/05 02:33:41;;;;;;;136.97;131.60;;;;;;;;;;5059660;28;20451;-43
2023/09/05 02:36:09;;;;;;;142.30;136.10;;;;;;;;;;5059785;28;20535;-41
2023/09/05 02:38:37;;;;;;;138.90;132.80;;;;;;;;;;5060201;28;20439;-41
2023/09/05 02:41:04;;;;;;;147.87;141.53;;;;;;;;;;5059558;28;20439;-41
2023/09/05 02:43:32;;;;;;;154.47;147.47;;;;;;;;;;5059781;28;20966;-42
2023/09/05 02:46:00;;;;;;;141.03;135.23;;;;;;;;;;5059756;28;20546;-40
2023/09/05 02:48:27;;;;;;;148.10;141.20;;;;;;;;;;5059519;28;20969;-41
2023/09/05 02:51:06;;;;;;;153.43;146.63;;;;;;;;;;5059898;28;20531;-42
2023/09/05 02:53:33;;;;;;;145.10;139.00;;;;;;;;;;5059578;28;20450;-43
2023/09/05 02:56:01;;;;;;;153.03;146.27;;;;;;;;;;5058929;28;20494;-39
2023/09/05 02:58:30;;;;;;;151.53;144.43;;;;;;;;;;5059608;28;20467;-42
2023/09/05 03:00:59;;;;;;;156.53;149.60;;;;;;;;;;5060576;28;20481;-42
2023/09/05 03:03:27;;;;;;;158.23;151.27;;;;;;;;;;5059268;28;20474;-43
2023/09/05 03:05:55;;;;;;;153.40;146.50;;;;;;;;;;5062773;28;20538;-41
2023/09/05 03:08:24;;;;;;;157.80;151.00;;;;;;;;;;5062576;28;20470;-43
2023/09/05 03:10:52;;;;;;;144.20;138.30;;;;;;;;;;5062976;28;20503;-41
2023/09/05 03:13:20;;;;;;;143.10;137.50;;;;;;;;;;5063703;28;20440;-40
2023/09/05 03:15:50;;;;;;;141.23;135.60;;;;;;;;;;5062971;28;20494;-42
2023/09/05 03:18:18;;;;;;;142.57;137.07;;;;;;;;;;5063320;28;20439;-42
2023/09/05 03:20:45;;;;;;;154.20;148.17;;;;;;;;;;5063356;28;21004;-42
2023/09/05 03:23:13;;;;;;;150.13;144.37;;;;;;;;;;5062233;28;20486;-45
2023/09/05 03:25:42;;;;;;;159.67;153.47;;;;;;;;;;5062304;28;20455;-45
2023/09/05 03:28:11;;;;;;;165.27;157.87;;;;;;;;;;5062833;28;20494;-45
2023/09/05 03:30:38;;;;;;;166.57;159.50;;;;;;;;;;5063165;28;20447;-43
2023/09/05 03:33:06;;;;;;;156.43;150.00;;;;;;;;;;5062513;28;20470;-45
2023/09/05 03:35:34;;;;;;;163.33;156.40;;;;;;;;;;5061945;28;20467;-40
2023/09/05 03:38:01;;;;;;;166.00;158.73;;;;;;;;;;5063959;28;20470;-40
2023/09/05 03:40:30;;;;;;;160.80;153.70;;;;;;;;;;5055076;28;20442;-43
2023/09/05 03:42:59;;;;;;;160.00;153.37;;;;;;;;;;5062605;28;20470;-39
2023/09/05 03:45:27;;;;;;;156.43;149.60;;;;;;;;;;5062043;28;20485;-42
2023/09/05 03:47:55;;;;;;;155.30;148.43;;;;;;;;;;5062834;28;20515;-40
2023/09/05 03:50:28;;;;;;;158.87;151.37;;;;;;;;;;5062634;28;20436;-43
2023/09/05 03:52:55;;;;;;;154.17;147.70;;;;;;;;;;5062785;28;20519;-41
2023/09/05 03:55:23;;;;;;;147.47;141.50;;;;;;;;;;5062142;28;20474;-45
2023/09/05 03:57:50;;;;;;;147.07;141.03;;;;;;;;;;5062426;28;20436;-45
2023/09/05 04:00:19;;;;;;;144.83;138.73;;;;;;;;;;5061893;28;20435;-40
2023/09/05 04:02:46;;;;;;;148.90;142.83;;;;;;;;;;5061488;28;20520;-42
2023/09/05 04:05:17;;;;;;;142.63;137.03;;;;;;;;;;5062072;28;20483;-41
2023/09/05 04:07:45;;;;;;;148.33;142.00;;;;;;;;;;5062823;28;20753;-41
2023/09/05 04:10:12;;;;;;;147.53;141.43;;;;;;;;;;5062331;28;20439;-42
2023/09/05 04:12:40;;;;;;;148.70;142.40;;;;;;;;;;5062822;28;21193;-41
2023/09/05 04:15:08;;;;;;;138.93;133.27;;;;;;;;;;5060669;28;20982;-45
2023/09/05 04:17:37;;;;;;;139.97;134.10;;;;;;;;;;5062951;28;20478;-41
2023/09/05 04:20:07;;;;;;;150.33;143.93;;;;;;;;;;5061639;28;20446;-40
2023/09/05 04:22:34;;;;;;;142.70;137.00;;;;;;;;;;5061949;28;20478;-43
2023/09/05 04:25:02;;;;;;;144.07;138.00;;;;;;;;;;5061373;28;20463;-42
2023/09/05 04:27:29;;;;;;;152.03;145.97;;;;;;;;;;5062425;28;20927;-46
2023/09/05 04:29:56;;;;;;;165.50;158.73;;;;;;;;;;5061971;28;20526;-40
2023/09/05 04:32:28;;;;;;;159.50;153.00;;;;;;;;;;5061802;28;20459;-40
2023/09/05 04:34:58;;;;;;;165.33;158.30;;;;;;;;;;5068685;28;20454;-40
2023/09/05 04:37:27;;;;;;;165.83;158.83;;;;;;;;;;5062325;28;21176;-39
2023/09/05 04:39:55;;;;;;;158.00;150.70;;;;;;;;;;5062462;28;20433;-40
2023/09/05 04:42:23;;;;;;;160.30;153.10;;;;;;;;;;5061544;28;20506;-42
2023/09/05 04:44:51;;;;;;;158.83;151.73;;;;;;;;;;5061509;28;20463;-40
2023/09/05 04:47:19;;;;;;;150.70;143.63;;;;;;;;;;5057478;28;20439;-42
2023/09/05 04:49:47;;;;;;;148.63;141.73;;;;;;;;;;5052162;28;20467;-42
2023/09/05 04:52:15;;;;;;;152.80;145.53;;;;;;;;;;5051677;28;20439;-46
2023/09/05 04:54:43;;;;;;;151.50;144.30;;;;;;;;;;5050941;28;20459;-41
2023/09/05 04:57:10;;;;;;;146.37;139.67;;;;;;;;;;5052163;28;20791;-41
2023/09/05 04:59:38;;;;;;;152.60;145.40;;;;;;;;;;5052065;28;20520;-44
2023/09/05 05:02:05;;;;;;;157.57;150.10;;;;;;;;;;5051729;28;20933;-43
2023/09/05 05:04:33;;;;;;;148.17;141.63;;;;;;;;;;5051408;28;20475;-41
2023/09/05 05:07:00;;;;;;;146.73;140.43;;;;;;;;;;5051437;28;20451;-40
2023/09/05 05:09:29;;;;;;;152.33;145.63;;;;;;;;;;5051449;28;20927;-41
2023/09/05 05:11:56;;;;;;;154.33;147.50;;;;;;;;;;5051806;28;20450;-41
2023/09/05 05:14:24;;;;;;;153.37;146.67;;;;;;;;;;5051328;28;20939;-41
2023/09/05 05:16:53;;;;;;;154.97;148.27;;;;;;;;;;5051153;28;20451;-45
2023/09/05 05:19:21;;;;;;;153.93;147.63;;;;;;;;;;5051406;28;20442;-42
2023/09/05 05:21:49;;;;;;;157.80;151.10;;;;;;;;;;5051390;28;20466;-40
2023/09/05 05:24:16;;;;;;;159.23;152.93;;;;;;;;;;5051200;28;20507;-45
2023/09/05 05:26:46;;;;;;;164.57;158.10;;;;;;;;;;5049731;28;20542;-41
2023/09/05 05:29:14;;;;;;;168.50;162.03;;;;;;;;;;5051493;28;20466;-40
2023/09/05 05:31:41;;;;;;;136.87;131.60;;;;;;;;;;5051288;28;20441;-44
2023/09/05 05:34:09;;;;;;;107.43;103.43;;;;;;;;;;5050838;28;20542;-42
2023/09/05 05:36:36;;;;;;;91.53;87.77;;;;;;;;;;5050982;28;20574;-41
2023/09/05 05:39:04;;;;;;;76.57;73.07;;;;;;;;;;5051236;28;20534;-41
2023/09/05 05:41:32;;;;;;;70.40;67.50;;;;;;;;;;5051346;28;20430;-41
2023/09/05 05:44:01;;;;;;;70.60;67.30;;;;;;;;;;5050586;28;20503;-43
2023/09/05 05:46:30;;;;;;;53.93;51.63;;;;;;;;;;5050877;28;22207;-43
2023/09/05 05:48:58;;;;;;;67.43;64.60;;;;;;;;;;5051030;28;20438;-42
2023/09/05 05:51:28;;;;;;;61.40;58.80;;;;;;;;;;5051341;28;20520;-41
2023/09/05 05:53:55;;;;;;;52.57;50.37;;;;;;;;;;5050924;28;20459;-42
2023/09/05 05:56:23;;;;;;;50.20;48.10;;;;;;;;;;5050171;28;20455;-41
2023/09/05 05:58:50;;;;;;;47.90;46.00;;;;;;;;;;5051000;28;20577;-44
2023/09/05 06:01:19;;;;;;;36.37;34.90;;;;;;;;;;5050674;28;20438;-43
2023/09/05 06:03:47;;;;;;;33.20;31.80;;;;;;;;;;5050489;28;20989;-44
2023/09/05 06:06:15;;;;;;;34.83;33.33;;;;;;;;;;5050097;28;20554;-43
2023/09/05 06:08:42;;;;;;;30.37;29.07;;;;;;;;;;5050644;28;20457;-41
2023/09/05 06:11:10;;;;;;;30.80;29.40;;;;;;;;;;5050954;28;21308;-41
2023/09/05 06:13:37;;;;;;;27.43;26.23;;;;;;;;;;5041959;28;20554;-43
2023/09/05 06:16:05;;;;;;;28.40;27.10;;;;;;;;;;5050504;28;20545;-42
2023/09/05 06:18:33;;;;;;;22.80;21.90;;;;;;;;;;5050557;28;20438;-44
2023/09/05 06:21:01;;;;;;;20.50;19.70;;;;;;;;;;5050556;28;20457;-43
2023/09/05 06:23:30;;;;;;;18.90;18.00;;;;;;;;;;5049856;28;20857;-46
2023/09/05 06:25:58;;;;;;;20.37;19.33;;;;;;;;;;5050134;28;20459;-43
2023/09/05 06:28:25;;;;;;;14.17;13.40;;;;;;;;;;5050309;28;20870;-42
2023/09/05 06:30:56;;;;;;;12.97;12.17;;;;;;;;;;5050665;28;20512;-42
2023/09/05 06:33:24;;;;;;;13.13;12.33;;;;;;;;;;5050484;28;20510;-44
2023/09/05 06:35:53;;;;;;;11.97;11.37;;;;;;;;;;5050436;28;20322;-42
2023/09/05 06:38:21;;;;;;;11.23;10.73;;;;;;;;;;5052182;28;20454;-41
2023/09/05 06:40:49;;;;;;;11.67;10.97;;;;;;;;;;5054736;28;20918;-41
2023/09/05 06:43:16;;;;;;;12.03;11.47;;;;;;;;;;5053894;28;20535;-43
2023/09/05 06:45:43;;;;;;;13.20;12.37;;;;;;;;;;5054093;28;20212;-48
2023/09/05 06:48:11;;;;;;;9.40;8.90;;;;;;;;;;5054433;28;20196;-40
2023/09/05 06:50:38;;;;;;;9.90;9.40;;;;;;;;;;5046348;28;20280;-40
2023/09/05 06:53:07;;;;;;;10.97;10.40;;;;;;;;;;5054120;28;20651;-40
2023/09/05 06:55:35;;;;;;;10.80;10.10;;;;;;;;;;5053648;28;20711;-43
2023/09/05 06:58:04;;;;;;;10.90;10.20;;;;;;;;;;5054082;28;20290;-39
2023/09/05 07:00:33;;;;;;;11.63;10.97;;;;;;;;;;5054110;28;20496;-42
2023/09/05 07:03:01;;;;;;;11.30;10.40;;;;;;;;;;5053720;28;20507;-42
2023/09/05 07:05:28;;;;;;;11.73;11.17;;;;;;;;;;5053252;28;20636;-43
2023/09/05 07:07:56;;;;;;;11.20;10.60;;;;;;;;;;5053975;28;20560;-46
2023/09/05 07:10:24;;;;;;;10.90;10.30;;;;;;;;;;5054080;28;20621;-43
2023/09/05 07:12:52;;;;;;;11.23;10.73;;;;;;;;;;5053835;28;20224;-43
2023/09/05 07:15:19;;;;;;;12.03;11.43;;;;;;;;;;5053738;28;20220;-44
2023/09/05 07:17:47;;;;;;;13.23;12.23;;;;;;;;;;5054192;28;20192;-41
2023/09/05 07:20:14;;;;;;;11.80;11.17;;;;;;;;;;5053897;28;20492;-39
2023/09/05 07:22:43;;;;;;;12.40;11.60;;;;;;;;;;5053544;28;20875;-43
2023/09/05 07:25:10;;;;;;;11.77;11.07;;;;;;;;;;5053365;28;20541;-41
2023/09/05 07:27:40;;;;;;;12.70;11.90;;;;;;;;;;5053994;28;20984;-40
2023/09/05 07:30:08;;;;;;;11.70;11.20;;;;;;;;;;5053667;28;20434;-39
2023/09/05 07:32:36;;;;;;;12.23;11.33;;;;;;;;;;5053691;28;20431;-44
2023/09/05 07:35:04;;;;;;;12.30;11.60;;;;;;;;;;5053278;28;20861;-41
2023/09/05 07:37:31;;;;;;;13.63;12.87;;;;;;;;;;5053629;28;20430;-41
2023/09/05 07:39:59;;;;;;;14.03;12.97;;;;;;;;;;5053872;28;20478;-41
2023/09/05 07:42:27;;;;;;;13.53;12.73;;;;;;;;;;5053531;28;20492;-40
2023/09/05 07:44:56;;;;;;;12.17;11.57;;;;;;;;;;5052953;28;20823;-43
2023/09/05 07:47:23;;;;;;;12.60;11.90;;;;;;;;;;5053119;28;20514;-42
2023/09/05 07:49:51;;;;;;;12.83;12.10;;;;;;;;;;5052688;28;20576;-43
2023/09/05 07:52:19;;;;;;;12.63;11.93;;;;;;;;;;5053326;28;20438;-44
2023/09/05 07:54:46;;;;;;;13.57;12.77;;;;;;;;;;5052610;28;20954;-44
2023/09/05 07:57:15;;;;;;;12.57;11.87;;;;;;;;;;5053277;28;20445;-43
2023/09/05 07:59:42;;;;;;;11.73;11.13;;;;;;;;;;5053585;28;20444;-42
2023/09/05 08:02:11;;;;;;;12.47;11.50;;;;;;;;;;5052870;28;20438;-45
2023/09/05 08:04:39;;;;;;;12.13;11.43;;;;;;;;;;5052669;28;20931;-45
2023/09/05 08:07:07;;;;;;;12.20;11.50;;;;;;;;;;5052990;28;21028;-47
2023/09/05 08:09:35;;;;;;;12.63;11.63;;;;;;;;;;5053149;28;20467;-42
2023/09/05 08:12:02;;;;;;;12.50;11.80;;;;;;;;;;5052842;28;20434;-43
2023/09/05 08:14:31;;;;;;;12.30;11.63;;;;;;;;;;5052449;28;20459;-42
2023/09/05 08:16:58;;;;;;;13.17;12.40;;;;;;;;;;5052435;28;20463;-44
2023/09/05 08:19:27;;;;;;;12.23;11.33;;;;;;;;;;5053045;28;20516;-47
2023/09/05 08:21:54;;;;;;;12.47;11.57;;;;;;;;;;5052918;28;20445;-47
2023/09/05 08:24:22;;;;;;;12.50;11.70;;;;;;;;;;5052350;28;20521;-42
2023/09/05 08:26:49;;;;;;;11.93;11.23;;;;;;;;;;5052433;28;20454;-44
2023/09/05 08:29:18;;;;;;;12.13;11.43;;;;;;;;;;5052680;28;20434;-42
2023/09/05 08:31:46;;;;;;;12.00;11.30;;;;;;;;;;5052529;28;20435;-41
2023/09/05 08:34:13;;;;;;;10.10;9.60;;;;;;;;;;5052483;28;20463;-44
2023/09/05 08:36:42;;;;;;;10.57;9.87;;;;;;;;;;5052255;28;20476;-41
2023/09/05 08:39:10;;;;;;;11.80;11.10;;;;;;;;;;5052646;28;20466;-39
2023/09/05 08:41:37;;;;;;;9.80;9.20;;;;;;;;;;5052468;28;20481;-43
2023/09/05 08:44:05;;;;;;;10.47;9.87;;;;;;;;;;5051826;28;20461;-45
2023/09/05 08:46:32;;;;;;;9.57;9.07;;;;;;;;;;5051763;28;20826;-45
2023/09/05 08:49:00;;;;;;;10.60;10.10;;;;;;;;;;5052505;28;20501;-42
2023/09/05 08:51:31;;;;;;;10.33;9.63;;;;;;;;;;5052141;28;20525;-45
2023/09/05 08:54:01;;;;;;;11.47;10.37;;;;;;;;;;5051799;28;20819;-43
2023/09/05 08:56:29;;;;;;;11.20;10.50;;;;;;;;;;5051520;28;21032;-43
2023/09/05 08:58:57;;;;;;;11.10;10.30;;;;;;;;;;5051983;28;20435;-43
2023/09/05 09:01:25;;;;;;;10.80;10.10;;;;;;;;;;5051511;28;20463;-41
2023/09/05 09:03:54;;;;;;;10.67;10.07;;;;;;;;;;5051475;28;20538;-42
2023/09/05 09:06:23;;;;;;;9.97;9.30;;;;;;;;;;5051282;28;20469;-42
2023/09/05 09:08:51;;;;;;;10.60;9.97;;;;;;;;;;5051983;28;20435;-42
2023/09/05 09:11:21;;;;;;;21.23;15.80;;;;;;;;;;5051475;28;20934;-43
2023/09/05 09:13:49;;;;;;;12.73;10.57;;;;;;;;;;5043362;28;20505;-43
2023/09/05 09:16:18;;;;;;;11.90;10.87;;;;;;;;;;5051373;28;20458;-46
2023/09/05 09:18:49;;;;;;;11.00;10.30;;;;;;;;;;5051847;28;20431;-45
2023/09/05 09:21:17;;;;;;;11.53;10.73;;;;;;;;;;5051789;28;21051;-44
2023/09/05 09:23:48;;;;;;;10.37;9.67;;;;;;;;;;5051348;28;20450;-46
2023/09/05 09:26:15;;;;;;;11.77;11.03;;;;;;;;;;5051148;28;20833;-43
2023/09/05 09:28:45;;;;;;;10.60;10.00;;;;;;;;;;5051686;28;20431;-41
2023/09/05 09:31:13;;;;;;;11.30;10.47;;;;;;;;;;5051478;28;20439;-47
2023/09/05 09:33:41;;;;;;;10.70;10.10;;;;;;;;;;5051233;28;21072;-46
2023/09/05 09:36:09;;;;;;;10.63;9.93;;;;;;;;;;5050810;28;20924;-44
2023/09/05 09:38:38;;;;;;;12.00;11.30;;;;;;;;;;5051493;28;20430;-41
2023/09/05 09:41:07;;;;;;;12.00;11.20;;;;;;;;;;5051451;28;20490;-42
2023/09/05 09:43:35;;;;;;;12.43;9.70;;;;;;;;;;5051052;28;20451;-42
2023/09/05 09:46:05;;;;;;;9.90;9.40;;;;;;;;;;5050704;28;20462;-42
2023/09/05 09:48:34;;;;;;;12.63;11.63;;;;;;;;;;5051260;28;20431;-44
2023/09/05 09:51:06;;;;;;;10.50;9.80;;;;;;;;;;5051072;28;20435;-41
2023/09/05 09:53:37;;;;;;;11.20;10.50;;;;;;;;;;5050823;28;20458;-43
2023/09/05 09:56:08;;;;;;;10.83;10.00;;;;;;;;;;5050536;28;21006;-46
2023/09/05 09:58:37;;;;;;;11.40;10.70;;;;;;;;;;5051059;28;20476;-42
2023/09/05 10:01:07;;;;;;;10.23;9.57;;;;;;;;;;5050428;28;20441;-43
2023/09/05 10:03:35;;;;;;;10.07;9.43;;;;;;;;;;5050659;28;20978;-44
2023/09/05 10:06:04;;;;;;;10.37;9.67;;;;;;;;;;5050685;28;20462;-44
2023/09/05 10:08:33;;;;;;;9.63;8.97;;;;;;;;;;5050843;28;20934;-43
2023/09/05 10:11:00;;;;;;;9.27;8.77;;;;;;;;;;5051013;28;20435;-42
2023/09/05 10:13:32;;;;;;;11.63;10.87;;;;;;;;;;5050133;28;20880;-44
2023/09/05 10:16:01;;;;;;;8.97;8.47;;;;;;;;;;5050347;28;20459;-42
2023/09/05 10:18:32;;;;;;;9.70;9.10;;;;;;;;;;5050813;28;20510;-45
2023/09/05 10:21:00;;;;;;;10.33;9.60;;;;;;;;;;5050916;28;20537;-44
2023/09/05 10:23:29;;;;;;;10.07;9.37;;;;;;;;;;5050039;28;20451;-42
2023/09/05 10:25:57;;;;;;;9.97;9.47;;;;;;;;;;5049786;28;20557;-43
2023/09/05 10:28:27;;;;;;;9.50;8.80;;;;;;;;;;5050510;28;20430;-41
2023/09/05 10:30:55;;;;;;;7.93;7.40;;;;;;;;;;5051208;28;20439;-43
2023/09/05 10:33:33;;;;;;;8.27;7.67;;;;;;;;;;5050311;28;20431;-42
2023/09/05 10:36:02;;;;;;;8.40;7.80;;;;;;;;;;5050432;28;20482;-45
2023/09/05 10:38:30;;;;;;;8.27;7.23;;;;;;;;;;5050627;28;20525;-44
2023/09/05 10:40:59;;;;;;;7.00;6.40;;;;;;;;;;5051141;28;20431;-41
2023/09/05 10:43:27;;;;;;;6.40;5.90;;;;;;;;;;5058396;28;20458;-45
2023/09/05 10:45:55;;;;;;;7.03;6.53;;;;;;;;;;5050153;28;21075;-44
2023/09/05 10:48:33;;;;;;;7.97;7.37;;;;;;;;;;5050617;28;20435;-45
2023/09/05 10:51:04;;;;;;;6.30;5.90;;;;;;;;;;5044124;28;20425;-42
2023/09/05 10:53:33;;;;;;;7.93;7.23;;;;;;;;;;5050446;28;20461;-45
2023/09/05 10:56:01;;;;;;;7.23;6.67;;;;;;;;;;5050299;28;20549;-46
2023/09/05 10:58:42;;;;;;;8.27;7.77;;;;;;;;;;5050155;28;20526;-47
2023/09/05 11:01:29;;;;;;;8.80;8.03;;;;;;;;;;5050587;28;20438;-42
2023/09/05 11:04:03;;;;;;;8.97;8.47;;;;;;;;;;5050385;28;20454;-46
2023/09/05 11:06:31;;;;;;;7.80;7.30;;;;;;;;;;5050058;28;20464;-46
2023/09/05 11:09:01;;;;;;;9.00;8.13;;;;;;;;;;5050593;28;20438;-46
2023/09/05 11:11:28;;;;;;;7.90;7.40;;;;;;;;;;5050153;28;20537;-42
2023/09/05 11:13:57;;;;;;;7.27;6.87;;;;;;;;;;5049892;28;20586;-44
2023/09/05 11:16:25;;;;;;;7.30;6.80;;;;;;;;;;5050094;28;20542;-42
2023/09/05 11:18:55;;;;;;;7.57;7.07;;;;;;;;;;5050794;28;20434;-45
2023/09/05 11:21:25;;;;;;;8.00;7.37;;;;;;;;;;5050297;28;20549;-42
2023/09/05 11:23:53;;;;;;;7.70;7.30;;;;;;;;;;5042770;28;20986;-42
2023/09/05 11:26:21;;;;;;;8.87;8.30;;;;;;;;;;5052505;28;20470;-42
2023/09/05 11:28:51;;;;;;;6.90;6.60;;;;;;;;;;5054076;28;20513;-42
2023/09/05 11:31:21;;;;;;;8.50;8.00;;;;;;;;;;5054221;28;20435;-43
2023/09/05 11:33:48;;;;;;;8.50;7.90;;;;;;;;;;5053759;28;20504;-43
2023/09/05 11:36:16;;;;;;;8.10;7.63;;;;;;;;;;5053344;28;20454;-42
2023/09/05 11:38:47;;;;;;;7.73;7.23;;;;;;;;;;5053642;28;20458;-41
2023/09/05 11:41:15;;;;;;;8.17;7.63;;;;;;;;;;5053440;28;20445;-43
2023/09/05 11:43:45;;;;;;;7.83;7.40;;;;;;;;;;5053362;28;21008;-39
2023/09/05 11:46:13;;;;;;;6.70;6.40;;;;;;;;;;5053115;28;20516;-41
2023/09/05 11:48:41;;;;;;;7.20;6.70;;;;;;;;;;5053673;28;20445;-39
2023/09/05 11:51:09;;;;;;;6.97;6.47;;;;;;;;;;5053714;28;20441;-39
2023/09/05 11:53:37;;;;;;;5.67;5.30;;;;;;;;;;5053126;28;20478;-44
2023/09/05 11:56:06;;;;;;;6.20;5.80;;;;;;;;;;5053316;28;21045;-45
2023/09/05 11:58:34;;;;;;;6.27;5.97;;;;;;;;;;5053296;28;20435;-39
2023/09/05 12:01:02;;;;;;;4.60;4.40;;;;;;;;;;5053433;28;20931;-39
2023/09/05 12:03:30;;;;;;;4.77;4.40;;;;;;;;;;5052927;28;20589;-41
2023/09/05 12:05:58;;;;;;;4.93;4.70;;;;;;;;;;5052851;28;20558;-39
2023/09/05 12:08:25;;;;;;;4.20;3.87;;;;;;;;;;5053487;28;20435;-40
2023/09/05 12:11:04;;;;;;;4.23;3.50;;;;;;;;;;5046202;28;20501;-42
2023/09/05 12:13:37;;;;;;;4.13;3.93;;;;;;;;;;5052520;28;20459;-42
2023/09/05 12:16:07;;;;;;;6.97;4.10;;;;;;;;;;5052831;28;20511;-42
2023/09/05 12:18:34;;;;;;;4.03;3.83;;;;;;;;;;5061227;28;20438;-39
2023/09/05 12:21:01;;;;;;;4.53;4.23;;;;;;;;;;5053166;28;20446;-39
2023/09/05 12:23:29;;;;;;;4.37;4.07;;;;;;;;;;5054317;28;20541;-39
2023/09/05 12:25:57;;;;;;;5.20;4.00;;;;;;;;;;5052586;28;20474;-44
2023/09/05 12:28:25;;;;;;;4.67;4.23;;;;;;;;;;5052783;28;20984;-41
2023/09/05 12:31:05;;;;;;;7.53;4.77;;;;;;;;;;5052698;28;20427;-45
2023/09/05 12:33:33;;;;;;;4.50;4.30;;;;;;;;;;5061038;28;20458;-41
2023/09/05 12:36:00;;;;;;;4.03;3.83;;;;;;;;;;5052125;28;20540;-43
2023/09/05 12:38:29;;;;;;;4.10;3.67;;;;;;;;;;5052611;28;20984;-41
2023/09/05 12:40:57;;;;;;;3.90;3.60;;;;;;;;;;5052669;28;20935;-41
2023/09/05 12:43:25;;;;;;;4.10;3.90;;;;;;;;;;5052329;28;20480;-41
2023/09/05 12:45:52;;;;;;;4.40;4.00;;;;;;;;;;5052098;28;20877;-46
2023/09/05 12:48:21;;;;;;;4.43;4.13;;;;;;;;;;5052785;28;20472;-41
2023/09/05 12:50:49;;;;;;;4.27;3.80;;;;;;;;;;5052013;28;20427;-42
2023/09/05 12:53:18;;;;;;;4.30;3.90;;;;;;;;;;5051851;28;20438;-43
2023/09/05 12:55:46;;;;;;;3.70;3.50;;;;;;;;;;5051369;28;20459;-43
2023/09/05 12:58:14;;;;;;;3.80;3.50;;;;;;;;;;5052268;28;20862;-44
2023/09/05 13:00:42;;;;;;;4.63;4.23;;;;;;;;;;5052334;28;20458;-41
2023/09/05 13:03:10;;;;;;;3.80;3.40;;;;;;;;;;5052190;28;20438;-42
2023/09/05 13:05:41;;;;;;;3.60;3.40;;;;;;;;;;5051254;28;20459;-41
2023/09/05 13:08:09;;;;;;;4.70;4.30;;;;;;;;;;5051838;28;20554;-41
2023/09/05 13:10:36;;;;;;;5.00;4.70;;;;;;;;;;5051591;28;20434;-46
2023/09/05 13:13:06;;;;;;;6.47;6.07;;;;;;;;;;5051774;28;20470;-45
2023/09/05 13:15:34;;;;;;;6.60;5.67;;;;;;;;;;5051476;28;20489;-44
2023/09/05 13:18:02;;;;;;;8.00;7.50;;;;;;;;;;5051536;28;20480;-42
2023/09/05 13:20:30;;;;;;;8.30;7.63;;;;;;;;;;5051664;28;20439;-41
2023/09/05 13:23:00;;;;;;;8.93;8.03;;;;;;;;;;5051172;28;20473;-41
2023/09/05 13:25:31;;;;;;;8.20;7.50;;;;;;;;;;5051239;28;20459;-42
2023/09/05 13:28:01;;;;;;;7.70;7.20;;;;;;;;;;5051675;28;20467;-41
2023/09/05 13:30:28;;;;;;;7.40;6.70;;;;;;;;;;5051775;28;20780;-42
2023/09/05 13:32:56;;;;;;;6.87;6.40;;;;;;;;;;5051335;28;20435;-41
2023/09/05 13:35:23;;;;;;;7.07;6.53;;;;;;;;;;5051316;28;20811;-44
2023/09/05 13:37:51;;;;;;;7.33;6.80;;;;;;;;;;5051307;28;20526;-43
2023/09/05 13:40:20;;;;;;;6.57;6.00;;;;;;;;;;5051372;28;20427;-43
2023/09/05 13:42:47;;;;;;;7.60;7.00;;;;;;;;;;5051382;28;20435;-45
2023/09/05 13:45:15;;;;;;;7.10;6.50;;;;;;;;;;5050898;28;20501;-47
2023/09/05 13:47:43;;;;;;;6.10;5.60;;;;;;;;;;5050604;28;21048;-42
2023/09/05 13:50:11;;;;;;;6.30;5.90;;;;;;;;;;5051245;28;20789;-40
2023/09/05 13:52:38;;;;;;;5.97;5.57;;;;;;;;;;5051184;28;20435;-40
2023/09/05 13:55:06;;;;;;;5.70;5.37;;;;;;;;;;5050404;28;20458;-44
2023/09/05 13:57:35;;;;;;;7.20;6.50;;;;;;;;;;5050901;28;20506;-42
2023/09/05 14:00:03;;;;;;;7.60;5.83;;;;;;;;;;5043144;28;20435;-46
2023/09/05 14:02:32;;;;;;;6.63;6.13;;;;;;;;;;5051280;28;20431;-43
2023/09/05 14:04:59;;;;;;;6.90;6.50;;;;;;;;;;5050185;28;20455;-43
2023/09/05 14:07:27;;;;;;;5.80;5.33;;;;;;;;;;5050804;28;20470;-41
2023/09/05 14:09:56;;;;;;;6.93;6.17;;;;;;;;;;5050809;28;20807;-40
2023/09/05 14:12:23;;;;;;;6.73;6.23;;;;;;;;;;5050895;28;20462;-40
2023/09/05 14:14:52;;;;;;;6.30;4.97;;;;;;;;;;5050027;28;20458;-41
2023/09/05 14:17:19;;;;;;;6.07;5.60;;;;;;;;;;5050847;28;20438;-43
2023/09/05 14:19:49;;;;;;;5.80;5.40;;;;;;;;;;5050444;28;20473;-45
2023/09/05 14:22:17;;;;;;;6.63;6.13;;;;;;;;;;5050663;28;20431;-43
2023/09/05 14:24:45;;;;;;;5.50;5.00;;;;;;;;;;5049863;28;20965;-40